createdAt,value
2023-02-12T00:01:50.607Z,95.48
2023-02-12T00:04:35.925Z,95.08
2023-02-12T00:07:21.118Z,95.50
2023-02-12T00:10:06.717Z,95.55
2023-02-12T00:12:54.003Z,95.50
2023-02-12T00:15:42.730Z,95.64
2023-02-12T00:18:27.818Z,94.96
2023-02-12T00:21:13.900Z,95.21
2023-02-12T00:23:59.297Z,95.25
2023-02-12T00:26:44.350Z,94.93
2023-02-12T00:29:29.168Z,95.40
2023-02-12T00:32:14.702Z,95.33
2023-02-12T00:34:59.475Z,95.43
2023-02-12T00:37:44.817Z,95.07
2023-02-12T00:40:29.607Z,95.49
2023-02-12T00:43:15.088Z,95.30
2023-02-12T00:46:00.019Z,95.46
2023-02-12T00:48:44.765Z,95.68
2023-02-12T00:51:29.636Z,96.06
2023-02-12T00:54:15.971Z,95.38
2023-02-12T00:57:01.198Z,95.92
2023-02-12T00:59:46.170Z,95.61
2023-02-12T01:02:31.378Z,96.11
2023-02-12T01:05:16.923Z,95.48
2023-02-12T01:08:03.587Z,95.79
2023-02-12T01:10:57.178Z,96.07
2023-02-12T01:13:42.439Z,95.87
2023-02-12T01:16:27.500Z,96.08
2023-02-12T01:19:13.529Z,95.41
2023-02-12T01:21:58.358Z,95.14
2023-02-12T01:24:43.421Z,95.44
2023-02-12T01:27:28.320Z,95.48
2023-02-12T01:30:14.292Z,95.61
2023-02-12T01:33:00.561Z,95.36
2023-02-12T01:35:45.347Z,95.12
2023-02-12T01:38:30.229Z,95.80
2023-02-12T01:41:22.497Z,95.73
2023-02-12T01:44:10.659Z,94.88
2023-02-12T01:47:04.957Z,95.97
2023-02-12T01:49:50.184Z,95.47
2023-02-12T01:52:38.135Z,95.38
2023-02-12T01:55:24.582Z,95.22
2023-02-12T01:58:10.057Z,95.98
2023-02-12T02:00:55.170Z,95.66
2023-02-12T02:03:44.181Z,95.39
2023-02-12T02:06:35.991Z,95.50
2023-02-12T02:09:20.947Z,95.75
2023-02-12T02:12:39.514Z,95.01
2023-02-12T02:15:26.927Z,95.08
2023-02-12T02:18:23.217Z,95.58
2023-02-12T02:21:38.187Z,95.56
2023-02-12T02:24:37.592Z,95.65
2023-02-12T02:27:45.589Z,95.44
2023-02-12T02:30:56.257Z,95.69
2023-02-12T02:33:56.347Z,95.42
2023-02-12T02:37:00.118Z,95.68
2023-02-12T02:39:51.570Z,95.42
2023-02-12T02:42:46.938Z,95.29
2023-02-12T02:45:37.486Z,95.34
2023-02-12T02:48:29.349Z,95.34
2023-02-12T02:51:20.153Z,95.39
2023-02-12T02:54:33.600Z,94.48
2023-02-12T02:57:29.849Z,95.01
2023-02-12T03:00:31.488Z,95.45
2023-02-12T03:03:42.052Z,95.77
2023-02-12T03:06:36.002Z,95.34
2023-02-12T03:09:30.005Z,95.78
2023-02-12T03:12:21.968Z,94.91
2023-02-12T03:15:12.212Z,95.77
2023-02-12T03:18:01.111Z,95.78
2023-02-12T03:20:53.070Z,95.53
2023-02-12T03:23:47.016Z,95.70
2023-02-12T03:26:40.788Z,95.35
2023-02-12T03:29:26.434Z,95.31
2023-02-12T03:32:41.424Z,94.21
2023-02-12T03:35:37.933Z,95.16
2023-02-12T03:38:36.468Z,94.58
2023-02-12T03:41:29.935Z,94.77
2023-02-12T03:44:27.546Z,94.84
2023-02-12T03:47:36.016Z,95.11
2023-02-12T03:50:44.171Z,95.21
2023-02-12T03:53:31.250Z,95.45
2023-02-12T03:56:23.758Z,95.49
2023-02-12T03:59:08.905Z,95.08
2023-02-12T04:01:57.402Z,95.17
2023-02-12T04:04:44.028Z,95.45
2023-02-12T04:07:28.929Z,94.90
2023-02-12T04:10:14.424Z,95.89
2023-02-12T04:13:24.133Z,95.74
2023-02-12T04:16:44.322Z,95.35
2023-02-12T04:19:43.536Z,95.60
2023-02-12T04:22:38.142Z,95.57
2023-02-12T04:25:46.168Z,96.24
2023-02-12T04:28:46.156Z,96.33
2023-02-12T04:31:40.868Z,96.00
2023-02-12T04:34:44.661Z,96.59
2023-02-12T04:37:41.199Z,96.12
2023-02-12T04:40:27.126Z,96.22
2023-02-12T04:43:11.847Z,96.09
2023-02-12T04:45:57.037Z,95.99
2023-02-12T04:48:53.318Z,96.83
2023-02-12T04:51:39.074Z,96.46
2023-02-12T04:54:24.691Z,96.63
2023-02-12T04:57:09.796Z,96.61
2023-02-12T04:59:54.712Z,96.16
2023-02-12T05:02:39.670Z,96.11
2023-02-12T05:05:24.959Z,95.48
2023-02-12T05:08:09.948Z,95.27
2023-02-12T05:10:54.929Z,95.27
2023-02-12T05:13:39.833Z,95.75
2023-02-12T05:16:25.564Z,96.05
2023-02-12T05:19:10.715Z,96.01
2023-02-12T05:21:56.457Z,95.65
2023-02-12T05:24:41.225Z,95.61
2023-02-12T05:27:26.530Z,95.61
2023-02-12T05:30:12.078Z,95.63
2023-02-12T05:32:57.056Z,95.38
2023-02-12T05:35:41.987Z,94.87
2023-02-12T05:38:26.886Z,95.69
2023-02-12T05:41:18.075Z,94.96
2023-02-12T05:44:04.986Z,95.55
2023-02-12T05:46:50.199Z,94.60
2023-02-12T05:49:34.963Z,95.35
2023-02-12T05:52:19.978Z,95.74
2023-02-12T05:55:05.116Z,95.39
2023-02-12T05:57:51.253Z,95.44
2023-02-12T06:00:36.958Z,95.27
2023-02-12T06:03:21.987Z,95.65
2023-02-12T06:06:06.963Z,95.46
2023-02-12T06:08:51.997Z,95.30
2023-02-12T06:11:37.779Z,95.94
2023-02-12T06:14:22.990Z,94.91
2023-02-12T06:17:07.858Z,94.95
2023-02-12T06:19:52.719Z,95.57
2023-02-12T06:22:38.579Z,95.36
2023-02-12T06:25:23.525Z,95.03
2023-02-12T06:28:08.406Z,95.58
2023-02-12T06:30:53.328Z,95.73
2023-02-12T06:33:38.519Z,95.55
2023-02-12T06:36:23.898Z,96.05
2023-02-12T06:39:09.024Z,96.22
2023-02-12T06:41:54.394Z,95.85
2023-02-12T06:44:39.765Z,96.17
2023-02-12T06:47:24.592Z,95.67
2023-02-12T06:50:09.651Z,96.35
2023-02-12T06:52:54.638Z,95.71
2023-02-12T06:55:39.531Z,95.88
2023-02-12T06:58:25.485Z,96.14
2023-02-12T07:01:22.355Z,95.88
2023-02-12T07:04:08.149Z,96.30
2023-02-12T07:06:53.546Z,96.20
2023-02-12T07:09:38.462Z,95.86
2023-02-12T07:12:23.182Z,96.27
2023-02-12T07:15:08.962Z,95.59
2023-02-12T07:17:53.651Z,95.57
2023-02-12T07:20:38.927Z,96.23
2023-02-12T07:23:23.829Z,95.62
2023-02-12T07:26:12.036Z,95.94
2023-02-12T07:28:59.174Z,96.31
2023-02-12T07:31:45.420Z,95.76
2023-02-12T07:34:33.358Z,95.63
2023-02-12T07:37:22.470Z,95.13
2023-02-12T07:40:08.386Z,95.34
2023-02-12T07:42:56.523Z,95.84
2023-02-12T07:45:42.081Z,94.60
2023-02-12T07:48:27.182Z,95.38
2023-02-12T07:51:14.713Z,95.51
2023-02-12T07:54:03.312Z,95.45
2023-02-12T07:56:49.883Z,95.23
2023-02-12T07:59:34.976Z,95.62
2023-02-12T08:02:19.925Z,94.76
2023-02-12T08:05:05.552Z,94.86
2023-02-12T08:07:50.574Z,95.21
2023-02-12T08:10:36.344Z,94.23
2023-02-12T08:13:21.165Z,94.92
2023-02-12T08:16:10.054Z,94.97
2023-02-12T08:19:02.423Z,94.90
2023-02-12T08:21:54.134Z,94.71
2023-02-12T08:24:39.644Z,94.89
2023-02-12T08:27:24.949Z,95.04
2023-02-12T08:30:10.330Z,94.20
2023-02-12T08:32:55.777Z,94.50
2023-02-12T08:35:41.065Z,93.72
2023-02-12T08:38:26.284Z,94.32
2023-02-12T08:41:32.891Z,93.44
2023-02-12T08:44:18.062Z,92.77
2023-02-12T08:47:03.351Z,93.68
2023-02-12T08:49:48.405Z,92.85
2023-02-12T08:52:35.974Z,93.02
2023-02-12T08:55:24.071Z,93.05
2023-02-12T08:58:09.788Z,93.47
2023-02-12T09:00:54.666Z,93.00
2023-02-12T09:03:39.655Z,92.39
2023-02-12T09:06:25.951Z,92.30
2023-02-12T09:09:10.855Z,92.48
2023-02-12T09:11:55.790Z,93.24
2023-02-12T09:14:40.649Z,93.49
2023-02-12T09:17:27.389Z,93.47
2023-02-12T09:20:12.471Z,93.10
2023-02-12T09:23:01.129Z,93.67
2023-02-12T09:25:46.737Z,94.05
2023-02-12T09:28:31.986Z,93.35
2023-02-12T09:31:26.312Z,93.46
2023-02-12T09:34:11.654Z,93.70
2023-02-12T09:36:57.893Z,93.73
2023-02-12T09:39:43.050Z,93.94
2023-02-12T09:42:55.875Z,93.82
2023-02-12T09:45:54.185Z,93.12
2023-02-12T09:48:54.883Z,93.02
2023-02-12T09:51:43.929Z,93.02
2023-02-12T09:54:37.559Z,92.65
2023-02-12T09:57:36.826Z,93.42
2023-02-12T10:00:32.691Z,92.85
2023-02-12T10:03:18.618Z,92.87
2023-02-12T10:06:07.559Z,92.57
2023-02-12T10:09:00.041Z,93.02
2023-02-12T10:12:01.979Z,92.04
2023-02-12T10:15:12.125Z,92.48
2023-02-12T10:18:06.263Z,92.18
2023-02-12T10:21:09.690Z,92.73
2023-02-12T10:24:08.456Z,91.98
2023-02-12T10:26:59.230Z,92.44
2023-02-12T10:29:47.256Z,91.84
2023-02-12T10:32:35.587Z,91.99
2023-02-12T10:35:23.688Z,91.46
2023-02-12T10:38:18.923Z,92.10
2023-02-12T10:41:03.874Z,92.26
2023-02-12T10:43:49.856Z,91.88
2023-02-12T10:46:35.034Z,91.91
2023-02-12T10:49:21.662Z,91.67
2023-02-12T10:52:20.042Z,91.12
2023-02-12T10:55:33.604Z,90.26
2023-02-12T10:58:25.540Z,89.73
2023-02-12T11:01:25.909Z,89.90
2023-02-12T11:04:19.774Z,89.47
2023-02-12T11:07:07.305Z,89.56
2023-02-12T11:09:55.071Z,89.97
2023-02-12T11:12:48.273Z,90.66
2023-02-12T11:15:46.845Z,89.27
2023-02-12T11:18:34.020Z,90.05
2023-02-12T11:21:23.667Z,90.21
2023-02-12T11:24:41.051Z,90.22
2023-02-12T11:27:30.687Z,90.20
2023-02-12T11:30:23.468Z,91.45
2023-02-12T11:33:17.299Z,90.18
2023-02-12T11:36:13.404Z,90.65
2023-02-12T11:39:00.995Z,90.55
2023-02-12T11:41:52.096Z,91.15
2023-02-12T11:44:40.563Z,90.24
2023-02-12T11:47:36.088Z,89.53
2023-02-12T11:50:28.261Z,90.27
2023-02-12T11:53:40.365Z,90.88
2023-02-12T11:56:42.169Z,90.26
2023-02-12T11:59:35.788Z,90.75
2023-02-12T12:02:44.042Z,90.52
2023-02-12T12:05:35.835Z,90.28
2023-02-12T12:08:40.854Z,90.96
2023-02-12T12:11:34.009Z,90.56
2023-02-12T12:14:29.876Z,90.95
2023-02-12T12:17:35.908Z,91.57
2023-02-12T12:20:24.954Z,91.47
2023-02-12T12:23:17.779Z,90.89
2023-02-12T12:26:28.806Z,91.12
2023-02-12T12:29:23.353Z,90.97
2023-02-12T12:32:16.462Z,91.41
2023-02-12T12:35:01.580Z,91.55
2023-02-12T12:38:01.996Z,91.42
2023-02-12T12:41:06.336Z,91.45
2023-02-12T12:44:17.369Z,91.48
2023-02-12T12:47:22.211Z,91.31
2023-02-12T12:50:29.873Z,90.94
2023-02-12T12:53:22.621Z,90.41
2023-02-12T12:56:23.451Z,90.03
2023-02-12T12:59:30.598Z,90.22
2023-02-12T13:02:34.258Z,89.69
2023-02-12T13:05:47.681Z,90.45
2023-02-12T13:08:56.471Z,90.21
2023-02-12T13:12:28.057Z,89.61
2023-02-12T13:15:32.534Z,89.38
2023-02-12T13:19:15.596Z,89.24
2023-02-12T13:22:17.425Z,90.23
2023-02-12T13:25:05.358Z,88.27
2023-02-12T13:27:52.356Z,89.32
2023-02-12T13:30:46.335Z,89.64
2023-02-12T13:33:43.278Z,89.09
2023-02-12T13:36:29.319Z,90.14
2023-02-12T13:39:45.649Z,89.80
2023-02-12T13:42:54.296Z,89.66
2023-02-12T13:45:49.705Z,89.70
2023-02-12T13:48:42.160Z,89.83
2023-02-12T13:51:53.414Z,90.04
2023-02-12T13:54:56.015Z,90.17
2023-02-12T13:57:41.094Z,89.63
2023-02-12T14:00:48.741Z,89.69
2023-02-12T14:03:36.237Z,89.84
2023-02-12T14:06:21.840Z,89.45
2023-02-12T14:09:12.332Z,88.85
2023-02-12T14:11:57.164Z,89.35
2023-02-12T14:14:46.962Z,89.70
2023-02-12T14:17:32.478Z,89.21
2023-02-12T14:20:33.682Z,89.63
2023-02-12T14:23:27.451Z,89.74
2023-02-12T14:26:15.276Z,90.14
2023-02-12T14:29:03.848Z,89.13
2023-02-12T14:31:49.046Z,89.25
2023-02-12T14:34:38.603Z,89.73
2023-02-12T14:37:38.496Z,89.07
2023-02-12T14:40:54.372Z,89.88
2023-02-12T14:43:58.311Z,89.40
2023-02-12T14:46:44.857Z,89.43
2023-02-12T14:49:37.044Z,90.02
2023-02-12T14:52:30.206Z,89.91
2023-02-12T14:55:25.122Z,89.39
2023-02-12T14:58:19.827Z,89.92
2023-02-12T15:01:08.638Z,90.07
2023-02-12T15:03:55.083Z,90.33
2023-02-12T15:06:48.921Z,90.45
2023-02-12T15:09:42.411Z,90.44
2023-02-12T15:12:33.332Z,90.89
2023-02-12T15:15:33.524Z,91.37
2023-02-12T15:18:31.828Z,92.33
2023-02-12T15:21:21.760Z,91.84
2023-02-12T15:24:09.585Z,92.29
2023-02-12T15:26:57.989Z,93.18
2023-02-12T15:29:47.734Z,93.37
2023-02-12T15:32:38.031Z,93.04
2023-02-12T15:35:29.834Z,92.86
2023-02-12T15:38:28.005Z,93.54
2023-02-12T15:41:36.625Z,94.04
2023-02-12T15:44:30.843Z,94.04
2023-02-12T15:47:17.428Z,93.98
2023-02-12T15:50:04.996Z,93.68
2023-02-12T15:52:51.152Z,94.35
2023-02-12T15:55:41.031Z,93.65
2023-02-12T15:58:25.789Z,93.93
2023-02-12T16:01:19.721Z,93.90
2023-02-12T16:04:08.926Z,94.01
2023-02-12T16:06:54.149Z,94.19
2023-02-12T16:09:41.642Z,94.05
2023-02-12T16:12:31.072Z,94.35
2023-02-12T16:15:43.012Z,94.09
2023-02-12T16:18:28.162Z,94.02
2023-02-12T16:21:24.242Z,94.44
2023-02-12T16:24:29.343Z,94.53
2023-02-12T16:27:23.050Z,94.91
2023-02-12T16:30:25.279Z,94.78
2023-02-12T16:33:34.028Z,93.98
2023-02-12T16:36:19.241Z,94.58
2023-02-12T16:39:06.392Z,94.49
2023-02-12T16:41:57.029Z,93.80
2023-02-12T16:44:43.402Z,93.91
2023-02-12T16:47:28.747Z,94.03
2023-02-12T16:50:18.768Z,94.41
2023-02-12T16:53:23.843Z,93.98
2023-02-12T16:56:22.968Z,93.80
2023-02-12T16:59:10.825Z,93.85
2023-02-12T17:02:01.419Z,93.92
2023-02-12T17:04:46.732Z,94.34
2023-02-12T17:07:31.817Z,94.18
2023-02-12T17:10:17.851Z,94.07
2023-02-12T17:13:05.271Z,94.67
2023-02-12T17:15:55.564Z,94.18
2023-02-12T17:18:43.772Z,94.66
2023-02-12T17:21:37.838Z,94.32
2023-02-12T17:24:26.544Z,94.61
2023-02-12T17:27:13.668Z,94.07
2023-02-12T17:30:01.381Z,94.05
2023-02-12T17:32:46.568Z,94.60
2023-02-12T17:35:33.258Z,93.66
2023-02-12T17:38:18.236Z,94.66
2023-02-12T17:41:08.976Z,93.56
2023-02-12T17:43:53.778Z,94.44
2023-02-12T17:46:39.338Z,94.60
2023-02-12T17:49:24.236Z,94.04
2023-02-12T17:52:09.404Z,94.39
2023-02-12T17:54:55.151Z,94.30
2023-02-12T17:57:40.626Z,94.03
2023-02-12T18:00:27.435Z,93.99
2023-02-12T18:03:12.775Z,93.52
2023-02-12T18:06:00.343Z,93.88
2023-02-12T18:08:46.345Z,93.90
2023-02-12T18:11:34.220Z,93.36
2023-02-12T18:14:19.278Z,93.66
2023-02-12T18:17:05.250Z,94.18
2023-02-12T18:19:50.704Z,93.95
2023-02-12T18:22:37.117Z,94.26
2023-02-12T18:25:24.080Z,93.93
2023-02-12T18:28:10.680Z,93.93
2023-02-12T18:31:00.227Z,94.21
2023-02-12T18:33:45.456Z,93.93
2023-02-12T18:36:38.607Z,94.10
2023-02-12T18:39:25.143Z,94.42
2023-02-12T18:42:13.942Z,94.77
2023-02-12T18:44:59.311Z,93.70
2023-02-12T18:47:46.742Z,93.81
2023-02-12T18:50:35.867Z,93.86
2023-02-12T18:53:24.399Z,93.88
2023-02-12T18:56:12.838Z,94.32
2023-02-12T18:59:00.609Z,94.06
2023-02-12T19:01:49.983Z,93.50
2023-02-12T19:04:34.877Z,94.32
2023-02-12T19:07:19.790Z,93.84
2023-02-12T19:10:06.412Z,94.14
2023-02-12T19:12:53.108Z,94.10
2023-02-12T19:15:39.577Z,93.61
2023-02-12T19:18:26.037Z,94.13
2023-02-12T19:21:14.025Z,93.69
2023-02-12T19:27:59.194Z,94.00
2023-02-12T19:30:44.569Z,94.04
2023-02-12T19:33:29.727Z,93.55
2023-02-12T19:36:18.929Z,93.57
2023-02-12T19:39:05.849Z,94.27
2023-02-12T19:41:52.711Z,93.83
2023-02-12T19:44:38.365Z,93.77
2023-02-12T19:47:23.247Z,93.71
2023-02-12T19:50:09.774Z,93.64
2023-02-12T19:52:55.121Z,93.57
2023-02-12T19:55:42.311Z,93.59
2023-02-12T19:58:27.470Z,94.09
2023-02-12T20:01:15.753Z,93.89
2023-02-12T20:04:00.989Z,93.38
2023-02-12T20:06:49.476Z,94.22
2023-02-12T20:09:35.106Z,93.89
2023-02-12T20:12:23.409Z,93.96
2023-02-12T20:15:08.525Z,94.15
2023-02-12T20:17:53.468Z,94.35
2023-02-12T20:20:38.924Z,94.34
2023-02-12T20:23:25.556Z,94.52
2023-02-12T20:26:13.981Z,94.59
2023-02-12T20:29:03.270Z,93.93
2023-02-12T20:31:50.242Z,94.29
2023-02-12T20:34:49.920Z,94.60
2023-02-12T20:37:36.925Z,94.97
2023-02-12T20:40:21.817Z,94.55
2023-02-12T20:43:07.581Z,94.70
2023-02-12T20:45:53.584Z,94.72
2023-02-12T20:48:41.318Z,95.26
2023-02-12T20:51:27.853Z,94.83
2023-02-12T20:54:15.765Z,95.39
2023-02-12T20:57:06.767Z,95.11
2023-02-12T20:59:51.883Z,94.85
2023-02-12T21:02:38.686Z,94.79
2023-02-12T21:05:26.976Z,94.51
2023-02-12T21:08:12.098Z,94.84
2023-02-12T21:11:15.838Z,94.39
2023-02-12T21:14:20.760Z,94.67
2023-02-12T21:17:07.349Z,94.39
2023-02-12T21:19:52.347Z,94.41
2023-02-12T21:22:37.126Z,94.23
2023-02-12T21:25:24.950Z,94.33
2023-02-12T21:28:11.398Z,94.25
2023-02-12T21:30:56.551Z,93.85
2023-02-12T21:33:44.138Z,94.43
2023-02-12T21:36:32.817Z,94.54
2023-02-12T21:39:24.410Z,95.09
2023-02-12T21:42:10.273Z,94.73
2023-02-12T21:44:56.238Z,94.80
2023-02-12T21:47:40.925Z,95.16
2023-02-12T21:50:26.173Z,95.04
2023-02-12T21:53:11.314Z,94.70
2023-02-12T21:55:56.906Z,94.33
2023-02-12T21:58:44.766Z,94.49
2023-02-12T22:01:33.185Z,94.75
2023-02-12T22:04:18.948Z,94.83
2023-02-12T22:07:05.501Z,94.74
2023-02-12T22:09:55.180Z,94.91
2023-02-12T22:12:39.923Z,95.34
2023-02-12T22:15:24.793Z,95.05
2023-02-12T22:18:09.815Z,95.18
2023-02-12T22:21:00.498Z,94.81
2023-02-12T22:23:45.804Z,95.26
2023-02-12T22:26:31.806Z,94.91
2023-02-12T22:29:17.299Z,95.08
2023-02-12T22:32:03.398Z,95.18
2023-02-12T22:34:48.691Z,95.38
2023-02-12T22:37:33.594Z,94.48
2023-02-12T22:40:18.594Z,94.38
2023-02-12T22:43:03.369Z,94.88
2023-02-12T22:45:48.324Z,94.40
2023-02-12T22:48:33.381Z,94.98
2023-02-12T22:51:27.576Z,94.97
2023-02-12T22:54:15.504Z,95.38
2023-02-12T22:57:00.700Z,95.00
2023-02-12T22:59:45.447Z,94.93
2023-02-12T23:02:30.267Z,95.13
2023-02-12T23:05:15.011Z,95.17
2023-02-12T23:08:00.107Z,94.69
2023-02-12T23:10:44.929Z,95.01
2023-02-12T23:13:30.533Z,95.68
2023-02-12T23:16:15.549Z,95.02
2023-02-12T23:19:02.139Z,94.80
2023-02-12T23:21:47.496Z,95.62
2023-02-12T23:24:32.475Z,94.95
2023-02-12T23:27:17.948Z,95.42
2023-02-12T23:30:03.267Z,95.19
2023-02-12T23:32:48.072Z,95.15
2023-02-12T23:35:33.212Z,95.21
2023-02-12T23:38:18.894Z,94.98
2023-02-12T23:41:04.167Z,95.17
2023-02-12T23:43:49.367Z,95.01
2023-02-12T23:46:34.204Z,95.46
2023-02-12T23:49:19.328Z,95.18
2023-02-12T23:52:07.756Z,94.75
2023-02-12T23:54:52.841Z,95.12
2023-02-12T23:57:40.214Z,95.24
